Time;durP1;ratioP1;P1;durP2;ratioP2;P2;SDS_P1;SDS_P2;PMS_P1;PMS_P2;Temp;Humidity;BMP_temperature;BMP_pressure;BME280_temperature;BME280_humidity;BME280_pressure;Samples;Min_cycle;Max_cycle;Signal;HPM_P1;HPM_P2
2023/12/31 00:04:06;;;;;;;11.38;8.75;;;;;;;;;;10295465;28;20513;-52
2023/12/31 00:09:05;;;;;;;9.88;8.27;;;;;;;;;;10292182;28;20076;-55
2023/12/31 00:14:03;;;;;;;9.82;8.68;;;;;;;;;;10293084;28;20056;-48
2023/12/31 00:19:02;;;;;;;10.90;9.20;;;;;;;;;;10292610;28;20069;-54
2023/12/31 00:24:02;;;;;;;11.13;9.07;;;;;;;;;;10289249;28;20084;-53
2023/12/31 00:29:00;;;;;;;11.10;8.77;;;;;;;;;;10292203;28;20072;-56
2023/12/31 00:33:58;;;;;;;10.10;8.75;;;;;;;;;;10292153;28;20107;-54
2023/12/31 00:38:56;;;;;;;14.57;10.50;;;;;;;;;;10287366;28;20071;-53
2023/12/31 00:43:57;;;;;;;15.63;9.25;;;;;;;;;;10286499;28;20083;-55
2023/12/31 00:48:55;;;;;;;10.48;8.88;;;;;;;;;;10284347;28;20068;-54
2023/12/31 00:53:53;;;;;;;10.27;8.65;;;;;;;;;;10290585;28;20301;-53
2023/12/31 00:58:51;;;;;;;12.57;8.95;;;;;;;;;;10298888;28;20491;-54
2023/12/31 01:03:51;;;;;;;8.98;7.97;;;;;;;;;;10288655;28;20073;-51
2023/12/31 01:08:50;;;;;;;10.18;8.52;;;;;;;;;;10291679;28;20072;-54
2023/12/31 01:13:49;;;;;;;8.95;7.95;;;;;;;;;;10291502;28;20079;-54
2023/12/31 01:18:48;;;;;;;10.35;8.07;;;;;;;;;;10291982;28;20065;-54
2023/12/31 01:23:47;;;;;;;8.65;6.95;;;;;;;;;;10289925;28;20088;-55
2023/12/31 01:28:46;;;;;;;11.40;9.32;;;;;;;;;;10289777;28;20071;-49
2023/12/31 01:33:45;;;;;;;11.95;10.10;;;;;;;;;;10289868;28;20089;-51
2023/12/31 01:38:43;;;;;;;10.73;8.68;;;;;;;;;;10291179;28;20072;-55
2023/12/31 01:43:43;;;;;;;11.02;7.88;;;;;;;;;;10289498;28;20069;-53
2023/12/31 01:48:41;;;;;;;11.77;8.05;;;;;;;;;;10290198;28;20048;-54
2023/12/31 01:53:39;;;;;;;12.07;8.48;;;;;;;;;;10291701;28;20507;-53
2023/12/31 01:58:38;;;;;;;9.63;8.18;;;;;;;;;;10284590;28;20072;-55
2023/12/31 02:03:38;;;;;;;25.23;19.02;;;;;;;;;;10297614;28;20541;-55
2023/12/31 02:08:37;;;;;;;12.65;10.10;;;;;;;;;;10288540;28;20049;-55
2023/12/31 02:13:35;;;;;;;8.85;7.95;;;;;;;;;;10296751;28;20064;-52
2023/12/31 02:18:33;;;;;;;17.63;13.23;;;;;;;;;;10296942;28;20048;-54
2023/12/31 02:23:33;;;;;;;11.77;9.70;;;;;;;;;;10285244;28;20069;-53
2023/12/31 02:28:33;;;;;;;16.83;15.13;;;;;;;;;;10297263;28;20083;-53
2023/12/31 02:33:31;;;;;;;14.18;12.75;;;;;;;;;;10287970;28;20083;-53
2023/12/31 02:38:30;;;;;;;19.52;17.58;;;;;;;;;;10284280;28;20069;-54
2023/12/31 02:43:28;;;;;;;21.42;19.33;;;;;;;;;;10283249;28;20064;-54
2023/12/31 02:48:27;;;;;;;17.10;15.27;;;;;;;;;;10282827;28;20083;-54
2023/12/31 02:53:27;;;;;;;29.63;26.42;;;;;;;;;;10287898;28;20594;-53
2023/12/31 02:58:25;;;;;;;15.68;13.98;;;;;;;;;;10287301;28;20079;-53
2023/12/31 03:03:23;;;;;;;12.35;10.60;;;;;;;;;;10282439;28;20072;-55
2023/12/31 03:08:23;;;;;;;12.60;9.07;;;;;;;;;;10282869;28;20075;-54
2023/12/31 03:13:21;;;;;;;11.00;9.80;;;;;;;;;;10290580;28;20041;-53
2023/12/31 03:18:19;;;;;;;10.77;8.98;;;;;;;;;;10286943;28;20065;-51
2023/12/31 03:23:19;;;;;;;11.35;9.98;;;;;;;;;;10283733;28;20072;-54
2023/12/31 03:28:18;;;;;;;11.32;10.15;;;;;;;;;;10286681;28;20073;-52
2023/12/31 03:33:16;;;;;;;12.43;11.13;;;;;;;;;;10286191;28;20081;-52
2023/12/31 03:38:15;;;;;;;10.63;9.52;;;;;;;;;;10288020;28;20068;-51
2023/12/31 03:43:13;;;;;;;12.60;9.40;;;;;;;;;;10294654;28;20083;-51
2023/12/31 03:48:13;;;;;;;10.63;8.95;;;;;;;;;;10294020;28;20060;-48
2023/12/31 03:53:11;;;;;;;9.90;8.48;;;;;;;;;;10294625;28;20069;-50
2023/12/31 03:58:09;;;;;;;9.35;8.23;;;;;;;;;;10292064;28;20498;-49
2023/12/31 04:03:07;;;;;;;8.75;7.50;;;;;;;;;;10292539;28;20076;-49
2023/12/31 04:08:07;;;;;;;8.57;7.78;;;;;;;;;;10293891;28;20064;-48
2023/12/31 04:13:06;;;;;;;12.02;7.55;;;;;;;;;;10292664;28;20076;-49
2023/12/31 04:18:05;;;;;;;12.68;8.05;;;;;;;;;;10291956;28;20525;-48
2023/12/31 04:23:03;;;;;;;10.48;8.93;;;;;;;;;;10289486;28;20077;-48
2023/12/31 04:28:04;;;;;;;8.90;8.00;;;;;;;;;;10300982;28;20574;-47
2023/12/31 04:33:02;;;;;;;9.27;8.07;;;;;;;;;;10292134;28;20085;-47
2023/12/31 04:38:03;;;;;;;11.75;8.18;;;;;;;;;;10291316;28;20079;-48
2023/12/31 04:43:01;;;;;;;8.30;7.50;;;;;;;;;;10291397;28;20317;-49
2023/12/31 04:48:01;;;;;;;10.60;8.20;;;;;;;;;;10291086;28;20528;-50
2023/12/31 04:52:59;;;;;;;9.52;7.35;;;;;;;;;;10291457;28;20068;-52
2023/12/31 04:57:58;;;;;;;8.90;8.00;;;;;;;;;;10293074;28;20077;-52
2023/12/31 05:02:56;;;;;;;10.30;7.78;;;;;;;;;;10291299;28;20079;-50
2023/12/31 05:07:56;;;;;;;8.77;7.38;;;;;;;;;;10292254;28;20515;-53
2023/12/31 05:12:54;;;;;;;8.43;7.63;;;;;;;;;;10294196;28;20056;-54
2023/12/31 05:17:52;;;;;;;9.25;8.15;;;;;;;;;;10290544;28;20060;-52
2023/12/31 05:22:50;;;;;;;8.93;8.02;;;;;;;;;;10289233;28;20080;-53
2023/12/31 05:27:50;;;;;;;8.32;7.53;;;;;;;;;;10285193;28;20073;-51
2023/12/31 05:32:48;;;;;;;9.10;8.02;;;;;;;;;;10293453;28;20506;-53
2023/12/31 05:37:46;;;;;;;8.55;7.50;;;;;;;;;;10290080;28;20475;-54
2023/12/31 05:42:45;;;;;;;8.43;7.15;;;;;;;;;;10289633;28;20068;-52
2023/12/31 05:47:45;;;;;;;8.25;7.35;;;;;;;;;;10288778;28;20071;-53
2023/12/31 05:52:44;;;;;;;8.75;7.88;;;;;;;;;;10289516;28;20087;-47
2023/12/31 05:57:43;;;;;;;9.07;8.10;;;;;;;;;;10290789;28;20071;-51
2023/12/31 06:02:41;;;;;;;11.05;8.02;;;;;;;;;;10284228;28;20098;-49
2023/12/31 06:07:41;;;;;;;8.38;7.57;;;;;;;;;;10289057;28;20075;-51
2023/12/31 06:12:39;;;;;;;13.55;7.88;;;;;;;;;;10282217;28;20481;-52
2023/12/31 06:17:37;;;;;;;14.80;11.50;;;;;;;;;;10286854;28;20068;-50
2023/12/31 06:22:36;;;;;;;12.88;11.15;;;;;;;;;;10289302;28;20075;-49
2023/12/31 06:27:37;;;;;;;13.23;10.25;;;;;;;;;;10287274;28;20064;-52
2023/12/31 06:32:35;;;;;;;23.50;17.45;;;;;;;;;;10284929;28;20080;-52
2023/12/31 06:37:34;;;;;;;12.98;10.65;;;;;;;;;;10286892;28;20087;-51
2023/12/31 06:42:32;;;;;;;17.35;8.68;;;;;;;;;;10285861;28;20064;-51
2023/12/31 06:47:31;;;;;;;9.93;7.65;;;;;;;;;;10287456;28;20075;-53
2023/12/31 06:52:30;;;;;;;10.13;9.10;;;;;;;;;;10281113;28;20061;-52
2023/12/31 06:57:28;;;;;;;10.00;8.93;;;;;;;;;;10283020;28;20585;-52
2023/12/31 07:02:26;;;;;;;9.85;8.65;;;;;;;;;;10280257;28;20557;-53
2023/12/31 07:07:26;;;;;;;12.20;9.82;;;;;;;;;;10280817;28;20064;-48
2023/12/31 07:12:24;;;;;;;12.45;8.77;;;;;;;;;;10282925;28;20475;-51
2023/12/31 07:17:23;;;;;;;10.10;8.13;;;;;;;;;;10283958;28;20076;-54
2023/12/31 07:22:29;;;;;;;10.98;8.30;;;;;;;;;;10287905;28;20086;-55
2023/12/31 07:27:27;;;;;;;10.27;8.95;;;;;;;;;;10286142;28;20106;-56
2023/12/31 07:32:25;;;;;;;14.32;9.23;;;;;;;;;;10283552;28;20083;-52
2023/12/31 07:37:24;;;;;;;13.75;11.82;;;;;;;;;;10287281;28;20072;-54
2023/12/31 07:42:23;;;;;;;12.63;10.90;;;;;;;;;;10277694;28;20064;-53
2023/12/31 07:47:21;;;;;;;17.92;10.90;;;;;;;;;;10282295;28;20083;-54
2023/12/31 07:52:20;;;;;;;13.18;10.32;;;;;;;;;;10281269;28;20060;-54
2023/12/31 07:57:19;;;;;;;10.82;9.40;;;;;;;;;;10284116;28;20950;-52
2023/12/31 08:02:18;;;;;;;12.07;9.85;;;;;;;;;;10284928;28;20610;-53
2023/12/31 08:07:16;;;;;;;18.67;10.50;;;;;;;;;;10282004;28;20109;-54
2023/12/31 08:12:15;;;;;;;12.40;10.63;;;;;;;;;;10287001;28;20446;-53
2023/12/31 08:17:13;;;;;;;12.85;10.35;;;;;;;;;;10285770;28;20077;-55
2023/12/31 08:22:13;;;;;;;13.80;11.10;;;;;;;;;;10285522;28;20073;-56
2023/12/31 08:27:11;;;;;;;15.88;11.85;;;;;;;;;;10293153;28;20068;-54
2023/12/31 08:32:09;;;;;;;18.45;16.33;;;;;;;;;;10292074;28;20091;-56
2023/12/31 08:37:07;;;;;;;15.52;13.90;;;;;;;;;;10293466;28;20518;-54
2023/12/31 08:42:07;;;;;;;17.98;14.07;;;;;;;;;;10297295;28;20041;-55
2023/12/31 08:47:05;;;;;;;26.05;20.55;;;;;;;;;;10291091;28;20076;-54
2023/12/31 08:52:04;;;;;;;24.02;19.00;;;;;;;;;;10287620;28;20167;-53
2023/12/31 08:57:02;;;;;;;27.17;20.77;;;;;;;;;;10293528;28;20074;-55
2023/12/31 09:02:02;;;;;;;21.92;17.17;;;;;;;;;;10292443;28;20068;-51
2023/12/31 09:07:00;;;;;;;19.95;16.20;;;;;;;;;;10291495;28;20072;-54
2023/12/31 09:11:59;;;;;;;21.55;15.85;;;;;;;;;;10288415;28;20073;-54
2023/12/31 09:16:57;;;;;;;15.85;13.43;;;;;;;;;;10291532;28;20065;-54
2023/12/31 09:21:56;;;;;;;17.45;12.85;;;;;;;;;;10290693;28;20069;-51
2023/12/31 09:26:55;;;;;;;17.95;14.10;;;;;;;;;;10290664;28;20072;-52
2023/12/31 09:31:53;;;;;;;18.75;15.40;;;;;;;;;;10290660;28;20064;-55
2023/12/31 09:36:51;;;;;;;18.33;15.27;;;;;;;;;;10289116;28;20079;-56
2023/12/31 09:41:53;;;;;;;23.08;16.63;;;;;;;;;;10290239;28;20076;-53
2023/12/31 09:46:59;;;;;;;28.15;20.70;;;;;;;;;;10289808;28;20076;-54
2023/12/31 09:52:08;;;;;;;34.95;28.35;;;;;;;;;;10290480;28;20045;-54
2023/12/31 09:57:08;;;;;;;92.50;67.22;;;;;;;;;;10287551;28;20706;-55
2023/12/31 10:02:17;;;;;;;22.83;18.45;;;;;;;;;;10290141;28;20079;-51
2023/12/31 10:07:16;;;;;;;17.73;14.80;;;;;;;;;;10286547;28;20075;-53
2023/12/31 10:12:16;;;;;;;14.88;12.52;;;;;;;;;;10285784;28;20502;-54
2023/12/31 10:17:14;;;;;;;16.02;11.80;;;;;;;;;;10283736;28;20061;-54
2023/12/31 10:22:14;;;;;;;17.27;13.30;;;;;;;;;;10278576;28;20069;-53
2023/12/31 10:27:13;;;;;;;23.98;12.85;;;;;;;;;;10282848;28;20079;-54
2023/12/31 10:32:12;;;;;;;13.43;12.02;;;;;;;;;;10278576;28;20092;-55
2023/12/31 10:37:12;;;;;;;17.25;12.68;;;;;;;;;;10281514;28;20758;-52
2023/12/31 10:42:10;;;;;;;17.02;13.90;;;;;;;;;;10277201;28;20061;-52
2023/12/31 10:47:09;;;;;;;19.75;13.90;;;;;;;;;;10279055;28;20065;-55
2023/12/31 10:52:11;;;;;;;15.38;12.38;;;;;;;;;;10283530;28;20064;-52
2023/12/31 10:57:10;;;;;;;16.30;12.88;;;;;;;;;;10283874;28;20083;-54
2023/12/31 11:02:10;;;;;;;22.40;17.13;;;;;;;;;;10286985;28;20060;-58
2023/12/31 11:07:11;;;;;;;24.33;18.52;;;;;;;;;;10284473;28;20502;-58
2023/12/31 11:12:09;;;;;;;18.73;15.07;;;;;;;;;;10286303;28;20079;-58
2023/12/31 11:17:17;;;;;;;22.08;15.20;;;;;;;;;;10284923;28;20090;-59
2023/12/31 11:22:40;;;;;;;22.60;15.93;;;;;;;;;;10285215;28;20079;-57
2023/12/31 11:27:38;;;;;;;19.55;16.52;;;;;;;;;;10279832;28;20083;-58
2023/12/31 11:32:37;;;;;;;17.40;14.10;;;;;;;;;;10283780;28;20534;-59
2023/12/31 11:37:40;;;;;;;20.70;15.38;;;;;;;;;;10280890;28;20079;-57
2023/12/31 11:42:38;;;;;;;17.17;14.75;;;;;;;;;;10279844;28;20060;-58
2023/12/31 11:47:38;;;;;;;16.08;13.65;;;;;;;;;;10284622;28;20099;-57
2023/12/31 11:52:41;;;;;;;20.75;15.00;;;;;;;;;;10281128;28;20068;-57
2023/12/31 11:57:39;;;;;;;18.10;15.60;;;;;;;;;;10283180;28;20088;-57
2023/12/31 12:02:38;;;;;;;17.20;14.75;;;;;;;;;;10290898;28;20079;-59
2023/12/31 12:07:36;;;;;;;19.70;15.18;;;;;;;;;;10292192;28;20068;-59
2023/12/31 12:12:42;;;;;;;21.67;16.15;;;;;;;;;;10287666;28;20721;-59
2023/12/31 12:17:40;;;;;;;22.65;15.93;;;;;;;;;;10288779;28;20083;-59
2023/12/31 12:22:39;;;;;;;19.48;16.95;;;;;;;;;;10291535;28;20064;-58
2023/12/31 12:27:37;;;;;;;18.45;16.02;;;;;;;;;;10291486;28;20657;-57
2023/12/31 12:32:37;;;;;;;24.55;16.92;;;;;;;;;;10289849;28;20068;-58
2023/12/31 12:37:35;;;;;;;19.55;16.95;;;;;;;;;;10289851;28;20080;-56
2023/12/31 12:42:34;;;;;;;38.58;23.92;;;;;;;;;;10312312;28;20487;-57
2023/12/31 12:47:32;;;;;;;31.77;24.00;;;;;;;;;;10299707;28;20474;-57
2023/12/31 12:52:32;;;;;;;27.20;22.15;;;;;;;;;;10293723;28;20068;-57
2023/12/31 12:57:30;;;;;;;26.63;21.27;;;;;;;;;;10314807;28;20075;-56
2023/12/31 13:02:28;;;;;;;32.08;22.27;;;;;;;;;;10303254;28;20064;-58
2023/12/31 13:07:26;;;;;;;32.38;22.92;;;;;;;;;;10300582;28;20072;-59
2023/12/31 13:12:28;;;;;;;23.00;19.08;;;;;;;;;;10286049;28;20486;-58
2023/12/31 13:17:27;;;;;;;24.15;18.98;;;;;;;;;;10288317;28;20080;-57
2023/12/31 13:22:25;;;;;;;26.48;19.42;;;;;;;;;;10286339;28;20061;-59
2023/12/31 13:27:24;;;;;;;28.50;21.55;;;;;;;;;;10287670;28;20071;-59
2023/12/31 13:32:24;;;;;;;25.55;19.35;;;;;;;;;;10283800;28;20072;-58
2023/12/31 13:37:22;;;;;;;23.20;18.65;;;;;;;;;;10287929;28;20072;-58
2023/12/31 13:42:21;;;;;;;23.50;17.92;;;;;;;;;;10288460;28;20072;-58
2023/12/31 13:47:19;;;;;;;27.80;22.27;;;;;;;;;;10287316;28;20083;-57
2023/12/31 13:52:18;;;;;;;35.97;24.27;;;;;;;;;;10285683;28;20549;-58
2023/12/31 13:57:20;;;;;;;32.97;27.52;;;;;;;;;;10285259;28;20075;-59
2023/12/31 14:02:18;;;;;;;21.55;17.02;;;;;;;;;;10288562;28;20519;-57
2023/12/31 14:07:16;;;;;;;23.58;20.33;;;;;;;;;;10284188;28;20056;-59
2023/12/31 14:12:19;;;;;;;26.48;18.77;;;;;;;;;;10285519;28;20061;-58
2023/12/31 14:17:17;;;;;;;29.33;23.23;;;;;;;;;;10284812;28;20484;-58
2023/12/31 14:22:16;;;;;;;22.85;18.75;;;;;;;;;;10286340;28;20076;-59
2023/12/31 14:27:16;;;;;;;35.78;23.30;;;;;;;;;;10285221;28;20077;-58
2023/12/31 14:32:14;;;;;;;31.60;25.17;;;;;;;;;;10283180;28;20077;-58
2023/12/31 14:37:15;;;;;;;46.78;38.97;;;;;;;;;;10284739;28;20084;-58
2023/12/31 14:42:14;;;;;;;27.40;24.58;;;;;;;;;;10288506;28;20064;-58
2023/12/31 14:47:15;;;;;;;34.45;30.65;;;;;;;;;;10284119;28;20076;-59
2023/12/31 14:52:13;;;;;;;42.58;34.97;;;;;;;;;;10282233;28;20145;-58
2023/12/31 14:57:11;;;;;;;37.92;30.38;;;;;;;;;;10285108;28;20087;-59
2023/12/31 15:02:17;;;;;;;34.10;30.20;;;;;;;;;;10284544;28;20068;-59
2023/12/31 15:07:16;;;;;;;43.03;34.55;;;;;;;;;;10285135;28;20080;-60
2023/12/31 15:12:14;;;;;;;34.45;28.80;;;;;;;;;;10285780;28;20064;-57
2023/12/31 15:17:13;;;;;;;32.00;27.58;;;;;;;;;;10285398;28;20064;-59
2023/12/31 15:22:11;;;;;;;31.73;24.40;;;;;;;;;;10283722;28;20060;-58
2023/12/31 15:27:11;;;;;;;23.85;21.17;;;;;;;;;;10284552;28;20091;-59
2023/12/31 15:32:09;;;;;;;167.07;96.75;;;;;;;;;;10286018;28;20125;-59
2023/12/31 15:37:08;;;;;;;58.78;44.58;;;;;;;;;;10296055;28;20073;-58
2023/12/31 15:42:07;;;;;;;28.30;22.77;;;;;;;;;;10294440;28;20072;-59
2023/12/31 15:47:06;;;;;;;32.50;25.80;;;;;;;;;;10287655;28;20475;-58
2023/12/31 15:52:07;;;;;;;44.92;34.65;;;;;;;;;;10297065;28;20577;-58
2023/12/31 15:57:06;;;;;;;46.63;35.65;;;;;;;;;;10290520;28;21428;-58
2023/12/31 16:02:09;;;;;;;28.58;23.50;;;;;;;;;;10290473;28;20075;-58
2023/12/31 16:07:08;;;;;;;32.63;27.67;;;;;;;;;;10291865;28;20087;-58
2023/12/31 16:12:06;;;;;;;31.60;27.17;;;;;;;;;;10291278;28;20068;-59
2023/12/31 16:17:05;;;;;;;29.10;24.85;;;;;;;;;;10290480;28;20076;-58
2023/12/31 16:22:06;;;;;;;26.45;23.67;;;;;;;;;;10290689;28;20082;-59
2023/12/31 16:27:04;;;;;;;34.58;29.00;;;;;;;;;;10291513;28;20091;-57
2023/12/31 16:32:02;;;;;;;30.88;24.70;;;;;;;;;;10287928;28;20087;-61
2023/12/31 16:37:01;;;;;;;26.10;20.92;;;;;;;;;;10290833;28;20056;-58
2023/12/31 16:42:00;;;;;;;25.35;22.65;;;;;;;;;;10288453;28;20064;-58
2023/12/31 16:46:59;;;;;;;31.13;26.45;;;;;;;;;;10290647;28;20068;-58
2023/12/31 16:51:57;;;;;;;35.45;28.88;;;;;;;;;;10291737;28;20069;-57
2023/12/31 16:56:55;;;;;;;29.60;23.98;;;;;;;;;;10288445;28;20065;-58
2023/12/31 17:01:55;;;;;;;38.22;31.63;;;;;;;;;;10291472;28;20525;-57
2023/12/31 17:06:53;;;;;;;30.40;25.35;;;;;;;;;;10292396;28;20071;-57
2023/12/31 17:11:51;;;;;;;46.17;37.03;;;;;;;;;;10288221;28;20069;-56
2023/12/31 17:16:50;;;;;;;87.85;74.03;;;;;;;;;;10286107;28;20069;-58
2023/12/31 17:21:49;;;;;;;57.50;46.88;;;;;;;;;;10285959;28;20072;-58
2023/12/31 17:26:54;;;;;;;44.33;36.78;;;;;;;;;;10289094;28;20466;-58
2023/12/31 17:31:52;;;;;;;47.67;35.63;;;;;;;;;;10286339;28;20525;-56
2023/12/31 17:36:53;;;;;;;43.05;34.20;;;;;;;;;;10286697;28;20462;-58
2023/12/31 17:41:52;;;;;;;45.33;35.67;;;;;;;;;;10287556;28;20068;-57
2023/12/31 17:46:50;;;;;;;149.35;108.70;;;;;;;;;;10290855;28;20080;-57
2023/12/31 17:51:49;;;;;;;213.98;153.70;;;;;;;;;;10290955;28;20075;-57
2023/12/31 17:56:48;;;;;;;85.65;63.65;;;;;;;;;;10289333;28;20076;-58
2023/12/31 18:01:47;;;;;;;130.10;94.47;;;;;;;;;;10289197;28;20079;-58
2023/12/31 18:06:45;;;;;;;151.63;116.72;;;;;;;;;;10287945;28;20090;-57
2023/12/31 18:11:43;;;;;;;112.20;87.50;;;;;;;;;;10286574;28;20065;-56
2023/12/31 18:16:43;;;;;;;111.57;88.60;;;;;;;;;;10282879;28;20072;-58
2023/12/31 18:21:41;;;;;;;167.25;114.78;;;;;;;;;;10288410;28;20064;-58
2023/12/31 18:26:40;;;;;;;128.95;99.43;;;;;;;;;;10287150;28;20076;-57
2023/12/31 18:31:38;;;;;;;91.22;74.15;;;;;;;;;;10291920;28;20094;-57
2023/12/31 18:36:41;;;;;;;87.38;67.35;;;;;;;;;;10284663;28;20072;-59
2023/12/31 18:41:39;;;;;;;87.45;67.20;;;;;;;;;;10288983;28;20080;-57
2023/12/31 18:46:39;;;;;;;76.18;56.50;;;;;;;;;;10288771;28;20076;-56
2023/12/31 18:51:39;;;;;;;65.18;51.35;;;;;;;;;;10287739;28;20481;-58
2023/12/31 18:56:39;;;;;;;66.78;50.03;;;;;;;;;;10287518;28;20080;-56
2023/12/31 19:01:38;;;;;;;37.65;31.15;;;;;;;;;;10283523;28;20548;-58
2023/12/31 19:06:36;;;;;;;36.60;30.02;;;;;;;;;;10284096;28;20069;-58
2023/12/31 19:11:36;;;;;;;34.92;29.55;;;;;;;;;;10283723;28;20069;-58
2023/12/31 19:16:34;;;;;;;32.83;26.00;;;;;;;;;;10289456;28;20060;-59
2023/12/31 19:21:32;;;;;;;64.53;49.17;;;;;;;;;;10288693;28;20069;-57
2023/12/31 19:26:30;;;;;;;63.90;50.97;;;;;;;;;;10281020;28;20077;-58
2023/12/31 19:31:30;;;;;;;33.03;29.10;;;;;;;;;;10288560;28;20080;-55
2023/12/31 19:36:29;;;;;;;29.38;22.33;;;;;;;;;;10289308;28;20088;-57
2023/12/31 19:41:27;;;;;;;77.63;56.95;;;;;;;;;;10286276;28;20293;-57
2023/12/31 19:46:25;;;;;;;70.32;52.65;;;;;;;;;;10286766;28;20080;-58
2023/12/31 19:51:25;;;;;;;35.38;28.27;;;;;;;;;;10286063;28;20068;-56
2023/12/31 19:56:23;;;;;;;26.65;21.67;;;;;;;;;;10285243;28;20102;-57
2023/12/31 20:01:23;;;;;;;12.10;10.88;;;;;;;;;;10284023;28;20829;-57
2023/12/31 20:06:22;;;;;;;16.92;14.68;;;;;;;;;;10287236;28;20072;-55
2023/12/31 20:11:21;;;;;;;15.10;11.38;;;;;;;;;;10284886;28;20084;-55
2023/12/31 20:16:19;;;;;;;22.58;18.95;;;;;;;;;;10297275;28;20076;-57
2023/12/31 20:21:18;;;;;;;14.32;12.82;;;;;;;;;;10313685;28;20091;-56
2023/12/31 20:26:16;;;;;;;11.82;10.63;;;;;;;;;;10286589;28;20459;-58
2023/12/31 20:31:15;;;;;;;11.90;10.30;;;;;;;;;;10287028;28;20816;-56
2023/12/31 20:36:14;;;;;;;12.70;11.50;;;;;;;;;;10287205;28;20451;-56
2023/12/31 20:41:12;;;;;;;10.23;9.23;;;;;;;;;;10280399;28;20498;-57
2023/12/31 20:46:11;;;;;;;13.40;12.00;;;;;;;;;;10285851;28;20451;-58
2023/12/31 20:51:11;;;;;;;13.63;11.95;;;;;;;;;;10286100;28;20069;-57
2023/12/31 20:56:10;;;;;;;10.27;9.15;;;;;;;;;;10285974;28;20068;-57
2023/12/31 21:01:09;;;;;;;9.52;8.73;;;;;;;;;;10286995;28;20079;-57
2023/12/31 21:06:07;;;;;;;11.52;8.80;;;;;;;;;;10286832;28;20073;-58
2023/12/31 21:11:07;;;;;;;9.93;8.90;;;;;;;;;;10281516;28;20068;-59
2023/12/31 21:16:05;;;;;;;10.48;8.90;;;;;;;;;;10280154;28;20140;-58
2023/12/31 21:21:04;;;;;;;11.68;8.55;;;;;;;;;;10288554;28;20139;-58
2023/12/31 21:26:02;;;;;;;10.07;8.95;;;;;;;;;;10288152;28;20132;-58
2023/12/31 21:31:02;;;;;;;29.00;23.67;;;;;;;;;;10282583;28;20088;-59
2023/12/31 21:36:01;;;;;;;16.17;13.38;;;;;;;;;;10281527;28;20084;-58
2023/12/31 21:41:00;;;;;;;15.52;12.35;;;;;;;;;;10287057;28;20072;-58
2023/12/31 21:45:58;;;;;;;17.08;12.57;;;;;;;;;;10290648;28;20064;-61
2023/12/31 21:50:59;;;;;;;91.88;42.72;;;;;;;;;;10289520;28;20322;-61
2023/12/31 21:55:57;;;;;;;28.63;22.92;;;;;;;;;;10286284;28;20071;-62
2023/12/31 22:01:15;;;;;;;25.77;20.23;;;;;;;;;;10281289;28;20068;-61
2023/12/31 22:06:14;;;;;;;366.80;259.52;;;;;;;;;;10284844;28;20111;-61
2023/12/31 22:11:13;;;;;;;170.57;116.25;;;;;;;;;;10288259;28;20076;-61
2023/12/31 22:16:11;;;;;;;62.58;42.33;;;;;;;;;;10284940;28;20076;-60
2023/12/31 22:21:10;;;;;;;44.50;30.52;;;;;;;;;;10279831;28;20073;-61
2023/12/31 22:26:10;;;;;;;14.95;12.65;;;;;;;;;;10269746;28;20174;-62
2023/12/31 22:31:08;;;;;;;13.43;10.93;;;;;;;;;;10280975;28;20091;-62
2023/12/31 22:36:07;;;;;;;19.48;16.90;;;;;;;;;;10287367;28;20676;-61
2023/12/31 22:41:05;;;;;;;14.10;11.30;;;;;;;;;;10281804;28;20076;-62
2023/12/31 22:46:05;;;;;;;14.45;12.95;;;;;;;;;;10283816;28;20071;-61
2023/12/31 22:51:03;;;;;;;14.68;12.15;;;;;;;;;;10303291;28;20604;-62
2023/12/31 22:56:01;;;;;;;11.85;10.65;;;;;;;;;;10299891;28;20065;-62
2023/12/31 23:00:59;;;;;;;20.38;16.77;;;;;;;;;;10290392;28;20487;-61
2023/12/31 23:05:59;;;;;;;31.15;27.95;;;;;;;;;;10298953;28;20075;-61
2023/12/31 23:10:57;;;;;;;17.77;14.60;;;;;;;;;;10281297;28;20506;-62
2023/12/31 23:15:55;;;;;;;14.77;12.77;;;;;;;;;;10281751;28;20072;-62
2023/12/31 23:20:53;;;;;;;14.13;12.00;;;;;;;;;;10282800;28;20109;-61
2023/12/31 23:25:55;;;;;;;23.45;19.88;;;;;;;;;;10279664;28;20068;-62
2023/12/31 23:30:53;;;;;;;14.95;13.10;;;;;;;;;;10284694;28;20553;-61
2023/12/31 23:35:51;;;;;;;19.02;15.18;;;;;;;;;;10282643;28;20928;-61
2023/12/31 23:40:50;;;;;;;15.98;14.02;;;;;;;;;;10291403;28;20494;-63
2023/12/31 23:45:49;;;;;;;17.25;15.35;;;;;;;;;;10285241;28;20068;-61
2023/12/31 23:50:47;;;;;;;16.42;11.85;;;;;;;;;;10291525;28;20120;-61
2023/12/31 23:55:46;;;;;;;21.95;13.48;;;;;;;;;;10288880;28;20060;-61
